Tinian, MP

10:32 AM ChST on January 31, 2015 (GMT +1000)
Red Cross-Airport | Change Station
CLOSE
Current Station
Personal Weather Station
Location: Saipan, MP
Elevation: 215 ft
Nearby Weather Stations

Elev 215 ft 15.13 °N, 145.72 °E | Updated 22 minutes ago

Partly Cloudy
Partly Cloudy
82.4 °F
Feels Like 92 °F
N
8.0
Wind Variable Wind from NE
Gusts 18.0 mph

Today
High -- | Low -- °F
--% Chance of Precip.
Yesterday
High -- | Low -- °F
Precip. -- in
6:46 AM 6:14 PM
Waxing Gibbous, 86% visible
Pressure 29.99 in
Visibility 10.0 miles
Clouds Few 2100 ft
Heat Index 92 °F
Dew Point 78 °F
Humidity 88%
Rainfall -999.00 in
Snow Depth Not available.
UV 6 out of 12
Pollen Not available.
Air Quality Not available.
Flu Activity Not available.
METAR PGSN 302354Z 05013KT 10SM FEW021 29/23 A2992 RMK AO2 SLP155 6//// T02900228 51012 PNO $

More Conditions Fewer Conditions

Pressure 29.99 in
Visibility 10.0 miles
Clouds Few 2100 ft
Heat Index 92 °F
Dew Point 78 °F
Humidity 88%
Rainfall -999.00 in
Snow Depth Not available.
UV 6 out of 12
Pollen Not available.
Air Quality Not available.
Flu Activity Not available.
METAR PGSN 302354Z 05013KT 10SM FEW021 29/23 A2992 RMK AO2 SLP155 6//// T02900228 51012 PNO $

More Conditions Fewer Conditions

10-Day Weather Forecast

Almanac

Astronomy

Jan. 31, 2015 Rise Set
Actual Time
Civil Twilight
Nautical Twilight
Astronomical Twilight
Moon
Length of Visible Light
Length of Day
Tomorrow will be .
, % of the Moon is Illuminated

Today's Extremes

State Highs State Lows

Community

WunderPhotos

Upload Photos

1,791,941 photos uploaded!

WunderBlogs® & News

Nearby

Air Quality

  Air Quality AQ Index Pollutant
Not available.

Snow Depth

Station Depth Elevation

Earthquake Activity

City Distance Mag. Time & Date
Minimum magnitude displayed is 2.5.

Coastal Water Temperatures

Place Temperature

Nearby Weather Stations